Flight Track Log - Related Links

Times and Time Zones

All times are in EDT time to prevent confusion due to time zone crossing. See the CSN3422 flight status page for this flight to view local times or setup timezone preferences in your user account.

Time Position Orientation Groundspeed Altitude Reporting Facility
EDT Latitude Longitude Course Direction KTS MPH feet Rate Location/Type
Fri 06:15:00 AM 26.4807 106.9289 117° Southeast  Level Estimated
Fri 06:16:00 AM 26.4228 107.0570 117° Southeast  Level Estimated
Fri 06:17:00 AM 26.3648 107.1849 117° Southeast  Level Estimated
Fri 06:18:00 AM 26.3067 107.3127 117° Southeast  Level Estimated
Fri 06:19:00 AM 26.2485 107.4404 117° Southeast  Level Estimated
Fri 06:20:00 AM 26.1901 107.5680 117° Southeast  Level Estimated
Fri 06:21:00 AM 26.1317 107.6954 117° Southeast  Level Estimated
Fri 06:22:00 AM 26.0731 107.8227 117° Southeast  Level Estimated
Fri 06:23:00 AM 26.0144 107.9499 117° Southeast  Level Estimated
Fri 06:24:00 AM 25.9556 108.0769 117° Southeast  Level Estimated
Fri 06:25:00 AM 25.8967 108.2039 117° Southeast  Level Estimated
Fri 06:26:00 AM 25.8377 108.3307 117° Southeast  Level Estimated
Fri 06:27:00 AM 25.7786 108.4573 117° Southeast  Level Estimated
Fri 06:28:00 AM 25.7194 108.5839 117° Southeast  Level Estimated
Fri 06:29:00 AM 25.6600 108.7103 117° Southeast  Level Estimated
Fri 06:30:00 AM 25.6006 108.8366 118° Southeast  Level Estimated
Fri 06:31:00 AM 25.5410 108.9627 118° Southeast  Level Estimated
Fri 06:32:00 AM 25.4813 109.0888 118° Southeast  Level Estimated
Fri 06:33:00 AM 25.4216 109.2147 118° Southeast  Level Estimated
Fri 06:34:00 AM 25.3617 109.3405 118° Southeast  Level Estimated
Fri 06:35:00 AM 25.3017 109.4661 118° Southeast  Level Estimated
Fri 06:36:00 AM 25.2416 109.5917 118° Southeast  Level Estimated
Fri 06:37:00 AM 25.1814 109.7171 118° Southeast  Level Estimated
Fri 06:38:00 AM 25.1211 109.8424 118° Southeast  Level Estimated
Fri 06:39:00 AM 25.0607 109.9676 118° Southeast  Level Estimated
Fri 06:40:00 AM 25.0002 110.0926 118° Southeast  Level Estimated
Fri 06:41:00 AM 24.9395 110.2175 118° Southeast  Level Estimated
Fri 06:42:00 AM 24.8788 110.3423 118° Southeast  Level Estimated
Fri 06:43:00 AM 24.8180 110.4670 118° Southeast  Level Estimated
Fri 06:44:00 AM 24.7570 110.5916 118° Southeast  Level Estimated
Fri 06:45:00 AM 24.6960 110.7160 118° Southeast  Level Estimated
Fri 06:46:00 AM 24.6349 110.8403 118° Southeast  Level Estimated
Fri 06:47:00 AM 24.5736 110.9645 118° Southeast  Level Estimated
Fri 06:48:00 AM 24.5123 111.0885 119° Southeast  Level Estimated
Fri 06:49:00 AM 24.4508 111.2125 119° Southeast  Level Estimated
Fri 06:50:00 AM 24.3893 111.3363 119° Southeast  Level Estimated
Fri 06:51:00 AM 24.3276 111.4600 119° Southeast  Level Estimated
Fri 06:52:00 AM 24.2659 111.5836 119° Southeast  Level Estimated
Fri 06:53:00 AM 24.2040 111.7070 119° Southeast  Level Estimated
Fri 06:54:00 AM 24.1421 111.8304 119° Southeast  Level Estimated
Fri 06:55:00 AM 24.0801 111.9536 119° Southeast  Level Estimated
Fri 06:56:00 AM 24.0179 112.0767 119° Southeast  Level Estimated
Fri 06:57:00 AM 23.9557 112.1997 119° Southeast  Level Estimated
Fri 06:58:00 AM 23.8933 112.3226 119° Southeast  Level Estimated
Fri 06:59:00 AM 23.8309 112.4453 119° Southeast  Level Estimated
Fri 07:00:00 AM 23.7684 112.5679 119° Southeast  Level Estimated
Fri 07:01:00 AM 23.7057 112.6905 119° Southeast  Level Estimated
Fri 07:02:00 AM 23.6430 112.8129 119° Southeast  Level Estimated
Fri 07:03:00 AM 23.5802 112.9351 119° Southeast  Level Estimated
Fri 07:04:00 AM 23.5173 113.0573 119° Southeast  Level Estimated
Fri 07:05:00 AM 23.4543 113.1793 119° Southeast  Level Estimated
Fri 07:06:00 AM 23.3924 113.2988 119° Southeast  Level Estimated
Fri 07:07:00 AM 23.3924 113.2988 223° Southwest  Level Estimated
Fri 07:08:00 AM 23.3924 113.2988 223° Southwest  Level Estimated
Fri 07:09:00 AM 23.3924 113.2988 223° Southwest  Level Estimated
Fri 07:10:00 AM 23.3924 113.2988 223° Southwest  Level Estimated
Fri 07:11:00 AM 23.3924 113.2988 223° Southwest  Level Estimated
Fri 07:12:00 AM 23.3924 113.2988 223° Southwest  Level Estimated
Fri 07:13:00 AM 23.3924 113.2988 223° Southwest  Level Estimated
Fri 07:14:00 AM 23.3924 113.2988 223° Southwest  Level Estimated
Fri 07:15:00 AM 23.3924 113.2988 223° Southwest  Level Estimated
Fri 07:16:00 AM 23.3924 113.2988 223° Southwest  Level Estimated
Fri 07:17:00 AM 23.3924 113.2988 223° Southwest  Level Estimated
Fri 07:18:00 AM 23.3924 113.2988 223° Southwest  Level Estimated
Fri 07:19:00 AM 23.3924 113.2988 223° Southwest  Level Estimated
Fri 07:20:00 AM 23.3924 113.2988 223° Southwest  Level Estimated
Fri 07:21:00 AM 23.3924 113.2988 223° Southwest  Level Estimated
Fri 07:22:00 AM 23.3924 113.2988 223° Southwest  Level Estimated

Login

Don't have an account? Register now (free) for customized features, flight alerts, and more!